Terminal Aerodrome Forecast
Issued by NWS Wichita, KS

Home | Current Version | Previous Version | Graphics & Text | Print | Product List | Glossary On
Versions: 1 2 3 4 5 6 7 8 9 10 11 12 13 14 15
000
FTUS43 KICT 300500
TAFICT
TAF
KICT 300520Z 3006/0106 15010KT P6SM OVC250
     FM301500 18012G20KT P6SM SCT100 BKN200
     FM302100 18015G22KT P6SM VCTS BKN070CB=

USA.gov is the U.S. government's official web portal to all federal, state and local government web resources and services.